sensor_id;sensor_type;location;lat;lon;timestamp;P1;durP1;ratioP1;P2;durP2;ratioP2
85877;SDS011;76393;44.098;3.072;2024-03-17T00:01:44;6.28;;;1.77;;
85877;SDS011;76393;44.098;3.072;2024-03-17T00:04:09;7.20;;;2.00;;
85877;SDS011;76393;44.098;3.072;2024-03-17T00:06:35;5.88;;;2.33;;
85877;SDS011;76393;44.098;3.072;2024-03-17T00:09:00;4.95;;;2.25;;
85877;SDS011;76393;44.098;3.072;2024-03-17T00:11:31;5.38;;;1.83;;
85877;SDS011;76393;44.098;3.072;2024-03-17T00:13:58;5.55;;;2.42;;
85877;SDS011;76393;44.098;3.072;2024-03-17T00:16:23;5.50;;;1.90;;
85877;SDS011;76393;44.098;3.072;2024-03-17T00:18:49;5.53;;;1.70;;
85877;SDS011;76393;44.098;3.072;2024-03-17T00:21:14;5.53;;;1.85;;
85877;SDS011;76393;44.098;3.072;2024-03-17T00:23:40;5.55;;;2.20;;
85877;SDS011;76393;44.098;3.072;2024-03-17T00:26:06;7.75;;;2.55;;
85877;SDS011;76393;44.098;3.072;2024-03-17T00:28:32;5.30;;;2.67;;
85877;SDS011;76393;44.098;3.072;2024-03-17T00:30:58;8.07;;;2.50;;
85877;SDS011;76393;44.098;3.072;2024-03-17T00:33:23;12.20;;;3.20;;
85877;SDS011;76393;44.098;3.072;2024-03-17T00:35:49;6.88;;;2.30;;
85877;SDS011;76393;44.098;3.072;2024-03-17T00:38:15;4.40;;;1.50;;
85877;SDS011;76393;44.098;3.072;2024-03-17T00:40:40;3.72;;;1.65;;
85877;SDS011;76393;44.098;3.072;2024-03-17T00:43:06;7.10;;;1.45;;
85877;SDS011;76393;44.098;3.072;2024-03-17T00:45:33;4.38;;;1.58;;
85877;SDS011;76393;44.098;3.072;2024-03-17T00:47:58;4.20;;;1.27;;
85877;SDS011;76393;44.098;3.072;2024-03-17T00:50:24;3.95;;;1.00;;
85877;SDS011;76393;44.098;3.072;2024-03-17T00:52:49;3.97;;;1.02;;
85877;SDS011;76393;44.098;3.072;2024-03-17T00:55:15;8.40;;;2.72;;
85877;SDS011;76393;44.098;3.072;2024-03-17T00:57:41;8.40;;;2.70;;
85877;SDS011;76393;44.098;3.072;2024-03-17T01:00:07;6.15;;;2.55;;
85877;SDS011;76393;44.098;3.072;2024-03-17T01:02:36;4.72;;;1.55;;
85877;SDS011;76393;44.098;3.072;2024-03-17T01:05:02;4.30;;;0.98;;
85877;SDS011;76393;44.098;3.072;2024-03-17T01:07:30;4.10;;;0.80;;
85877;SDS011;76393;44.098;3.072;2024-03-17T01:09:57;2.55;;;0.95;;
85877;SDS011;76393;44.098;3.072;2024-03-17T01:12:22;3.80;;;0.90;;
85877;SDS011;76393;44.098;3.072;2024-03-17T01:14:48;4.63;;;1.27;;
85877;SDS011;76393;44.098;3.072;2024-03-17T01:17:14;3.03;;;1.00;;
85877;SDS011;76393;44.098;3.072;2024-03-17T01:19:39;3.65;;;0.75;;
85877;SDS011;76393;44.098;3.072;2024-03-17T01:22:05;3.10;;;1.05;;
85877;SDS011;76393;44.098;3.072;2024-03-17T01:24:30;4.38;;;0.90;;
85877;SDS011;76393;44.098;3.072;2024-03-17T01:26:59;6.43;;;2.13;;
85877;SDS011;76393;44.098;3.072;2024-03-17T01:29:25;5.55;;;1.70;;
85877;SDS011;76393;44.098;3.072;2024-03-17T01:31:51;5.85;;;1.75;;
85877;SDS011;76393;44.098;3.072;2024-03-17T01:34:20;11.55;;;3.30;;
85877;SDS011;76393;44.098;3.072;2024-03-17T01:36:45;8.18;;;1.98;;
85877;SDS011;76393;44.098;3.072;2024-03-17T01:39:11;10.48;;;3.55;;
85877;SDS011;76393;44.098;3.072;2024-03-17T01:41:37;7.53;;;2.38;;
85877;SDS011;76393;44.098;3.072;2024-03-17T01:44:02;6.22;;;1.95;;
85877;SDS011;76393;44.098;3.072;2024-03-17T01:46:28;6.53;;;1.67;;
85877;SDS011;76393;44.098;3.072;2024-03-17T01:48:54;5.30;;;1.60;;
85877;SDS011;76393;44.098;3.072;2024-03-17T01:51:19;4.00;;;1.20;;
85877;SDS011;76393;44.098;3.072;2024-03-17T01:53:45;3.88;;;1.10;;
85877;SDS011;76393;44.098;3.072;2024-03-17T01:56:11;4.70;;;1.20;;
85877;SDS011;76393;44.098;3.072;2024-03-17T01:58:39;5.53;;;1.40;;
85877;SDS011;76393;44.098;3.072;2024-03-17T02:01:11;3.70;;;1.02;;
85877;SDS011;76393;44.098;3.072;2024-03-17T02:03:40;5.03;;;0.73;;
85877;SDS011;76393;44.098;3.072;2024-03-17T02:06:07;4.05;;;1.00;;
85877;SDS011;76393;44.098;3.072;2024-03-17T02:08:50;4.82;;;0.95;;
85877;SDS011;76393;44.098;3.072;2024-03-17T02:11:24;3.53;;;1.00;;
85877;SDS011;76393;44.098;3.072;2024-03-17T02:13:57;4.30;;;1.10;;
85877;SDS011;76393;44.098;3.072;2024-03-17T02:16:23;3.75;;;1.02;;
85877;SDS011;76393;44.098;3.072;2024-03-17T02:18:53;3.63;;;1.30;;
85877;SDS011;76393;44.098;3.072;2024-03-17T02:21:20;4.75;;;1.10;;
85877;SDS011;76393;44.098;3.072;2024-03-17T02:23:48;2.75;;;0.82;;
85877;SDS011;76393;44.098;3.072;2024-03-17T02:26:13;2.50;;;0.80;;
85877;SDS011;76393;44.098;3.072;2024-03-17T02:28:39;4.10;;;1.27;;
85877;SDS011;76393;44.098;3.072;2024-03-17T02:31:09;4.03;;;1.40;;
85877;SDS011;76393;44.098;3.072;2024-03-17T02:33:35;3.65;;;1.45;;
85877;SDS011;76393;44.098;3.072;2024-03-17T02:36:02;3.90;;;1.50;;
85877;SDS011;76393;44.098;3.072;2024-03-17T02:38:29;3.42;;;1.23;;
85877;SDS011;76393;44.098;3.072;2024-03-17T02:41:14;3.75;;;1.23;;
85877;SDS011;76393;44.098;3.072;2024-03-17T02:43:40;4.05;;;1.05;;
85877;SDS011;76393;44.098;3.072;2024-03-17T02:46:06;3.95;;;1.40;;
85877;SDS011;76393;44.098;3.072;2024-03-17T02:48:33;4.40;;;1.45;;
85877;SDS011;76393;44.098;3.072;2024-03-17T02:51:00;4.72;;;1.55;;
85877;SDS011;76393;44.098;3.072;2024-03-17T02:53:25;5.10;;;1.90;;
85877;SDS011;76393;44.098;3.072;2024-03-17T02:55:51;5.22;;;1.67;;
85877;SDS011;76393;44.098;3.072;2024-03-17T02:58:16;6.20;;;1.95;;
85877;SDS011;76393;44.098;3.072;2024-03-17T03:00:42;3.00;;;0.98;;
85877;SDS011;76393;44.098;3.072;2024-03-17T03:03:07;4.80;;;1.40;;
85877;SDS011;76393;44.098;3.072;2024-03-17T03:05:33;3.25;;;1.20;;
85877;SDS011;76393;44.098;3.072;2024-03-17T03:07:58;3.50;;;1.20;;
85877;SDS011;76393;44.098;3.072;2024-03-17T03:10:24;2.83;;;0.90;;
85877;SDS011;76393;44.098;3.072;2024-03-17T03:12:49;2.78;;;0.90;;
85877;SDS011;76393;44.098;3.072;2024-03-17T03:15:15;3.42;;;0.68;;
85877;SDS011;76393;44.098;3.072;2024-03-17T03:17:40;2.72;;;0.70;;
85877;SDS011;76393;44.098;3.072;2024-03-17T03:20:06;1.60;;;0.50;;
85877;SDS011;76393;44.098;3.072;2024-03-17T03:22:33;5.40;;;0.85;;
85877;SDS011;76393;44.098;3.072;2024-03-17T03:24:58;3.42;;;0.90;;
85877;SDS011;76393;44.098;3.072;2024-03-17T03:27:24;2.38;;;0.57;;
85877;SDS011;76393;44.098;3.072;2024-03-17T03:29:49;3.35;;;0.75;;
85877;SDS011;76393;44.098;3.072;2024-03-17T03:32:15;2.80;;;0.60;;
85877;SDS011;76393;44.098;3.072;2024-03-17T03:34:42;3.42;;;0.55;;
85877;SDS011;76393;44.098;3.072;2024-03-17T03:37:08;3.03;;;0.60;;
85877;SDS011;76393;44.098;3.072;2024-03-17T03:39:36;3.40;;;0.77;;
85877;SDS011;76393;44.098;3.072;2024-03-17T03:42:01;3.13;;;1.40;;
85877;SDS011;76393;44.098;3.072;2024-03-17T03:44:27;4.45;;;1.17;;
85877;SDS011;76393;44.098;3.072;2024-03-17T03:46:53;4.15;;;1.60;;
85877;SDS011;76393;44.098;3.072;2024-03-17T03:49:23;3.88;;;1.48;;
85877;SDS011;76393;44.098;3.072;2024-03-17T03:51:51;4.40;;;1.40;;
85877;SDS011;76393;44.098;3.072;2024-03-17T03:54:17;3.90;;;1.10;;
85877;SDS011;76393;44.098;3.072;2024-03-17T03:56:42;2.55;;;1.00;;
85877;SDS011;76393;44.098;3.072;2024-03-17T03:59:09;2.80;;;0.70;;
85877;SDS011;76393;44.098;3.072;2024-03-17T04:01:35;3.25;;;0.70;;
85877;SDS011;76393;44.098;3.072;2024-03-17T04:04:00;3.00;;;0.70;;
85877;SDS011;76393;44.098;3.072;2024-03-17T04:06:26;4.63;;;0.80;;
85877;SDS011;76393;44.098;3.072;2024-03-17T04:08:51;1.70;;;0.60;;
85877;SDS011;76393;44.098;3.072;2024-03-17T04:11:17;3.40;;;0.68;;
85877;SDS011;76393;44.098;3.072;2024-03-17T04:13:42;2.28;;;0.60;;
85877;SDS011;76393;44.098;3.072;2024-03-17T04:16:08;3.33;;;0.50;;
85877;SDS011;76393;44.098;3.072;2024-03-17T04:18:35;1.63;;;0.60;;
85877;SDS011;76393;44.098;3.072;2024-03-17T04:21:02;3.00;;;0.55;;
85877;SDS011;76393;44.098;3.072;2024-03-17T04:23:33;2.10;;;0.60;;
85877;SDS011;76393;44.098;3.072;2024-03-17T04:25:59;2.42;;;0.57;;
85877;SDS011;76393;44.098;3.072;2024-03-17T04:28:26;3.78;;;0.50;;
85877;SDS011;76393;44.098;3.072;2024-03-17T04:30:52;1.83;;;0.57;;
85877;SDS011;76393;44.098;3.072;2024-03-17T04:33:17;1.58;;;0.73;;
85877;SDS011;76393;44.098;3.072;2024-03-17T04:35:43;1.60;;;0.50;;
85877;SDS011;76393;44.098;3.072;2024-03-17T04:38:08;2.28;;;0.77;;
85877;SDS011;76393;44.098;3.072;2024-03-17T04:40:34;2.28;;;0.43;;
85877;SDS011;76393;44.098;3.072;2024-03-17T04:43:00;1.80;;;0.43;;
85877;SDS011;76393;44.098;3.072;2024-03-17T04:45:26;1.88;;;0.57;;
85877;SDS011;76393;44.098;3.072;2024-03-17T04:47:52;2.25;;;1.00;;
85877;SDS011;76393;44.098;3.072;2024-03-17T04:50:18;6.45;;;1.63;;
85877;SDS011;76393;44.098;3.072;2024-03-17T04:52:44;7.18;;;1.90;;
85877;SDS011;76393;44.098;3.072;2024-03-17T04:55:09;5.55;;;1.80;;
85877;SDS011;76393;44.098;3.072;2024-03-17T04:57:35;4.78;;;1.25;;
85877;SDS011;76393;44.098;3.072;2024-03-17T05:00:01;3.28;;;1.35;;
85877;SDS011;76393;44.098;3.072;2024-03-17T05:02:27;5.03;;;1.48;;
85877;SDS011;76393;44.098;3.072;2024-03-17T05:04:53;5.07;;;1.25;;
85877;SDS011;76393;44.098;3.072;2024-03-17T05:07:18;4.28;;;1.30;;
85877;SDS011;76393;44.098;3.072;2024-03-17T05:09:44;3.60;;;1.52;;
85877;SDS011;76393;44.098;3.072;2024-03-17T05:12:10;3.92;;;1.10;;
85877;SDS011;76393;44.098;3.072;2024-03-17T05:14:35;4.82;;;1.55;;
85877;SDS011;76393;44.098;3.072;2024-03-17T05:17:01;4.70;;;1.80;;
85877;SDS011;76393;44.098;3.072;2024-03-17T05:19:27;3.85;;;1.20;;
85877;SDS011;76393;44.098;3.072;2024-03-17T05:21:52;4.05;;;1.38;;
85877;SDS011;76393;44.098;3.072;2024-03-17T05:24:18;4.45;;;1.30;;
85877;SDS011;76393;44.098;3.072;2024-03-17T05:26:44;3.42;;;1.10;;
85877;SDS011;76393;44.098;3.072;2024-03-17T05:29:11;3.80;;;1.08;;
85877;SDS011;76393;44.098;3.072;2024-03-17T05:31:37;3.70;;;1.20;;
85877;SDS011;76393;44.098;3.072;2024-03-17T05:34:04;4.68;;;1.80;;
85877;SDS011;76393;44.098;3.072;2024-03-17T05:36:31;4.93;;;1.35;;
85877;SDS011;76393;44.098;3.072;2024-03-17T05:38:59;4.07;;;1.20;;
85877;SDS011;76393;44.098;3.072;2024-03-17T05:41:25;7.22;;;1.25;;
85877;SDS011;76393;44.098;3.072;2024-03-17T05:43:51;4.70;;;1.48;;
85877;SDS011;76393;44.098;3.072;2024-03-17T05:46:17;4.32;;;1.10;;
85877;SDS011;76393;44.098;3.072;2024-03-17T05:48:42;3.90;;;1.23;;
85877;SDS011;76393;44.098;3.072;2024-03-17T05:51:11;3.20;;;1.38;;
85877;SDS011;76393;44.098;3.072;2024-03-17T05:53:40;2.95;;;1.08;;
85877;SDS011;76393;44.098;3.072;2024-03-17T05:56:06;2.97;;;0.90;;
85877;SDS011;76393;44.098;3.072;2024-03-17T05:58:36;2.50;;;0.75;;
85877;SDS011;76393;44.098;3.072;2024-03-17T06:01:02;2.03;;;0.60;;
85877;SDS011;76393;44.098;3.072;2024-03-17T06:03:28;3.47;;;0.80;;
85877;SDS011;76393;44.098;3.072;2024-03-17T06:05:54;2.15;;;0.50;;
85877;SDS011;76393;44.098;3.072;2024-03-17T06:08:19;2.25;;;0.55;;
85877;SDS011;76393;44.098;3.072;2024-03-17T06:10:46;3.65;;;0.85;;
85877;SDS011;76393;44.098;3.072;2024-03-17T06:13:13;4.20;;;1.35;;
85877;SDS011;76393;44.098;3.072;2024-03-17T06:15:40;4.40;;;1.60;;
85877;SDS011;76393;44.098;3.072;2024-03-17T06:18:06;5.13;;;1.35;;
85877;SDS011;76393;44.098;3.072;2024-03-17T06:20:39;4.03;;;1.30;;
85877;SDS011;76393;44.098;3.072;2024-03-17T06:23:07;2.60;;;1.30;;
85877;SDS011;76393;44.098;3.072;2024-03-17T06:25:36;4.82;;;1.05;;
85877;SDS011;76393;44.098;3.072;2024-03-17T06:28:12;3.67;;;1.30;;
85877;SDS011;76393;44.098;3.072;2024-03-17T06:30:40;3.08;;;1.20;;
85877;SDS011;76393;44.098;3.072;2024-03-17T06:33:06;4.18;;;1.38;;
85877;SDS011;76393;44.098;3.072;2024-03-17T06:35:31;3.40;;;1.10;;
85877;SDS011;76393;44.098;3.072;2024-03-17T06:38:00;3.45;;;1.17;;
85877;SDS011;76393;44.098;3.072;2024-03-17T06:40:28;3.22;;;1.20;;
85877;SDS011;76393;44.098;3.072;2024-03-17T06:42:54;4.80;;;1.23;;
85877;SDS011;76393;44.098;3.072;2024-03-17T06:45:19;3.33;;;1.02;;
85877;SDS011;76393;44.098;3.072;2024-03-17T06:47:48;3.70;;;1.05;;
85877;SDS011;76393;44.098;3.072;2024-03-17T06:50:13;2.55;;;0.80;;
85877;SDS011;76393;44.098;3.072;2024-03-17T06:52:39;2.83;;;1.10;;
85877;SDS011;76393;44.098;3.072;2024-03-17T06:55:05;2.33;;;0.85;;
85877;SDS011;76393;44.098;3.072;2024-03-17T06:57:32;2.58;;;0.90;;
85877;SDS011;76393;44.098;3.072;2024-03-17T07:00:03;5.35;;;1.27;;
85877;SDS011;76393;44.098;3.072;2024-03-17T07:02:31;3.58;;;1.10;;
85877;SDS011;76393;44.098;3.072;2024-03-17T07:04:57;5.45;;;1.20;;
85877;SDS011;76393;44.098;3.072;2024-03-17T07:07:23;5.35;;;1.55;;
85877;SDS011;76393;44.098;3.072;2024-03-17T07:09:48;3.35;;;1.10;;
85877;SDS011;76393;44.098;3.072;2024-03-17T07:12:14;3.40;;;1.40;;
85877;SDS011;76393;44.098;3.072;2024-03-17T07:14:39;4.43;;;1.15;;
85877;SDS011;76393;44.098;3.072;2024-03-17T07:17:05;4.45;;;1.38;;
85877;SDS011;76393;44.098;3.072;2024-03-17T07:19:30;3.75;;;1.20;;
85877;SDS011;76393;44.098;3.072;2024-03-17T07:21:56;4.65;;;1.08;;
85877;SDS011;76393;44.098;3.072;2024-03-17T07:24:22;2.72;;;1.20;;
85877;SDS011;76393;44.098;3.072;2024-03-17T07:26:48;3.30;;;1.20;;
85877;SDS011;76393;44.098;3.072;2024-03-17T07:29:14;3.05;;;0.98;;
85877;SDS011;76393;44.098;3.072;2024-03-17T07:31:40;2.50;;;1.10;;
85877;SDS011;76393;44.098;3.072;2024-03-17T07:34:06;3.00;;;1.02;;
85877;SDS011;76393;44.098;3.072;2024-03-17T07:36:31;2.35;;;0.90;;
85877;SDS011;76393;44.098;3.072;2024-03-17T07:38:57;2.17;;;1.00;;
85877;SDS011;76393;44.098;3.072;2024-03-17T07:41:22;2.50;;;0.82;;
85877;SDS011;76393;44.098;3.072;2024-03-17T07:43:49;3.97;;;1.30;;
85877;SDS011;76393;44.098;3.072;2024-03-17T07:46:15;4.85;;;1.67;;
85877;SDS011;76393;44.098;3.072;2024-03-17T07:48:41;3.15;;;1.05;;
85877;SDS011;76393;44.098;3.072;2024-03-17T07:51:09;2.78;;;0.65;;
85877;SDS011;76393;44.098;3.072;2024-03-17T07:53:38;4.22;;;1.25;;
85877;SDS011;76393;44.098;3.072;2024-03-17T07:56:08;2.75;;;1.05;;
85877;SDS011;76393;44.098;3.072;2024-03-17T07:58:35;3.33;;;0.90;;
85877;SDS011;76393;44.098;3.072;2024-03-17T08:01:03;2.28;;;0.70;;
85877;SDS011;76393;44.098;3.072;2024-03-17T08:03:35;2.60;;;0.60;;
85877;SDS011;76393;44.098;3.072;2024-03-17T08:06:03;2.63;;;0.73;;
85877;SDS011;76393;44.098;3.072;2024-03-17T08:08:30;3.65;;;0.80;;
85877;SDS011;76393;44.098;3.072;2024-03-17T08:10:56;3.40;;;0.82;;
85877;SDS011;76393;44.098;3.072;2024-03-17T08:13:22;3.75;;;0.80;;
85877;SDS011;76393;44.098;3.072;2024-03-17T08:15:57;2.95;;;0.60;;
85877;SDS011;76393;44.098;3.072;2024-03-17T08:18:27;1.38;;;0.70;;
85877;SDS011;76393;44.098;3.072;2024-03-17T08:20:53;4.03;;;0.85;;
85877;SDS011;76393;44.098;3.072;2024-03-17T08:23:24;3.53;;;0.90;;
85877;SDS011;76393;44.098;3.072;2024-03-17T08:25:53;4.15;;;1.08;;
85877;SDS011;76393;44.098;3.072;2024-03-17T08:28:19;3.15;;;1.00;;
85877;SDS011;76393;44.098;3.072;2024-03-17T08:30:55;4.28;;;1.00;;
85877;SDS011;76393;44.098;3.072;2024-03-17T08:33:21;5.35;;;1.20;;
85877;SDS011;76393;44.098;3.072;2024-03-17T08:36:00;3.22;;;1.00;;
85877;SDS011;76393;44.098;3.072;2024-03-17T08:38:27;2.92;;;1.00;;
85877;SDS011;76393;44.098;3.072;2024-03-17T08:40:53;2.95;;;1.13;;
85877;SDS011;76393;44.098;3.072;2024-03-17T08:43:20;3.50;;;1.10;;
85877;SDS011;76393;44.098;3.072;2024-03-17T08:46:03;2.35;;;0.95;;
85877;SDS011;76393;44.098;3.072;2024-03-17T08:48:31;3.97;;;1.05;;
85877;SDS011;76393;44.098;3.072;2024-03-17T08:50:58;3.67;;;0.73;;
85877;SDS011;76393;44.098;3.072;2024-03-17T08:53:24;3.03;;;0.90;;
85877;SDS011;76393;44.098;3.072;2024-03-17T08:55:50;1.63;;;0.75;;
85877;SDS011;76393;44.098;3.072;2024-03-17T08:58:16;5.18;;;0.90;;
85877;SDS011;76393;44.098;3.072;2024-03-17T09:00:42;2.08;;;0.82;;
85877;SDS011;76393;44.098;3.072;2024-03-17T09:03:10;3.10;;;0.70;;
85877;SDS011;76393;44.098;3.072;2024-03-17T09:05:37;2.97;;;0.77;;
85877;SDS011;76393;44.098;3.072;2024-03-17T09:08:06;3.78;;;0.90;;
85877;SDS011;76393;44.098;3.072;2024-03-17T09:10:41;2.22;;;0.77;;
85877;SDS011;76393;44.098;3.072;2024-03-17T09:13:14;2.97;;;1.10;;
85877;SDS011;76393;44.098;3.072;2024-03-17T09:15:54;2.63;;;0.82;;
85877;SDS011;76393;44.098;3.072;2024-03-17T09:18:28;2.17;;;0.70;;
85877;SDS011;76393;44.098;3.072;2024-03-17T09:21:04;2.25;;;0.80;;
85877;SDS011;76393;44.098;3.072;2024-03-17T09:23:32;2.50;;;0.75;;
85877;SDS011;76393;44.098;3.072;2024-03-17T09:26:02;3.85;;;0.80;;
85877;SDS011;76393;44.098;3.072;2024-03-17T09:28:29;2.45;;;0.90;;
85877;SDS011;76393;44.098;3.072;2024-03-17T09:30:56;3.47;;;0.77;;
85877;SDS011;76393;44.098;3.072;2024-03-17T09:33:22;3.90;;;0.88;;
85877;SDS011;76393;44.098;3.072;2024-03-17T09:35:55;1.63;;;0.65;;
85877;SDS011;76393;44.098;3.072;2024-03-17T09:38:22;2.90;;;1.05;;
85877;SDS011;76393;44.098;3.072;2024-03-17T09:40:48;2.42;;;0.60;;
85877;SDS011;76393;44.098;3.072;2024-03-17T09:43:21;2.63;;;0.77;;
85877;SDS011;76393;44.098;3.072;2024-03-17T09:45:48;2.15;;;0.60;;
85877;SDS011;76393;44.098;3.072;2024-03-17T09:48:14;1.58;;;0.70;;
85877;SDS011;76393;44.098;3.072;2024-03-17T09:50:48;2.38;;;0.55;;
85877;SDS011;76393;44.098;3.072;2024-03-17T09:53:16;1.83;;;0.50;;
85877;SDS011;76393;44.098;3.072;2024-03-17T09:55:43;3.67;;;0.90;;
85877;SDS011;76393;44.098;3.072;2024-03-17T09:58:18;1.63;;;0.60;;
85877;SDS011;76393;44.098;3.072;2024-03-17T10:00:43;1.85;;;0.50;;
85877;SDS011;76393;44.098;3.072;2024-03-17T10:03:09;2.00;;;0.35;;
85877;SDS011;76393;44.098;3.072;2024-03-17T10:05:34;2.97;;;0.60;;
85877;SDS011;76393;44.098;3.072;2024-03-17T10:08:00;1.30;;;0.50;;
85877;SDS011;76393;44.098;3.072;2024-03-17T10:10:26;4.53;;;0.65;;
85877;SDS011;76393;44.098;3.072;2024-03-17T10:12:52;1.98;;;0.60;;
85877;SDS011;76393;44.098;3.072;2024-03-17T10:15:18;1.50;;;0.60;;
85877;SDS011;76393;44.098;3.072;2024-03-17T10:17:45;1.75;;;0.52;;
85877;SDS011;76393;44.098;3.072;2024-03-17T10:20:15;3.15;;;0.60;;
85877;SDS011;76393;44.098;3.072;2024-03-17T10:25:28;1.42;;;0.60;;
85877;SDS011;76393;44.098;3.072;2024-03-17T10:27:54;1.65;;;0.60;;
85877;SDS011;76393;44.098;3.072;2024-03-17T10:30:20;3.47;;;0.70;;
85877;SDS011;76393;44.098;3.072;2024-03-17T10:32:51;2.30;;;0.47;;
85877;SDS011;76393;44.098;3.072;2024-03-17T10:35:26;2.55;;;0.50;;
85877;SDS011;76393;44.098;3.072;2024-03-17T10:37:56;2.22;;;0.50;;
85877;SDS011;76393;44.098;3.072;2024-03-17T10:40:23;2.63;;;0.30;;
85877;SDS011;76393;44.098;3.072;2024-03-17T10:42:50;1.92;;;0.60;;
85877;SDS011;76393;44.098;3.072;2024-03-17T10:45:16;1.30;;;0.38;;
85877;SDS011;76393;44.098;3.072;2024-03-17T10:47:47;3.97;;;0.50;;
85877;SDS011;76393;44.098;3.072;2024-03-17T10:50:18;3.13;;;0.55;;
85877;SDS011;76393;44.098;3.072;2024-03-17T10:52:46;1.73;;;0.52;;
85877;SDS011;76393;44.098;3.072;2024-03-17T10:55:22;1.80;;;0.73;;
85877;SDS011;76393;44.098;3.072;2024-03-17T10:57:49;3.45;;;0.50;;
85877;SDS011;76393;44.098;3.072;2024-03-17T11:00:21;1.65;;;0.50;;
85877;SDS011;76393;44.098;3.072;2024-03-17T11:02:48;2.22;;;0.50;;
85877;SDS011;76393;44.098;3.072;2024-03-17T11:07:51;1.17;;;0.43;;
85877;SDS011;76393;44.098;3.072;2024-03-17T11:12:56;1.77;;;0.40;;
85877;SDS011;76393;44.098;3.072;2024-03-17T11:17:55;2.20;;;0.50;;
85877;SDS011;76393;44.098;3.072;2024-03-17T11:20:42;3.67;;;0.50;;
85877;SDS011;76393;44.098;3.072;2024-03-17T11:23:08;2.08;;;0.50;;
85877;SDS011;76393;44.098;3.072;2024-03-17T11:28:00;2.88;;;0.57;;
85877;SDS011;76393;44.098;3.072;2024-03-17T11:44:23;3.83;;;0.73;;
85877;SDS011;76393;44.098;3.072;2024-03-17T11:49:19;3.10;;;0.70;;
85877;SDS011;76393;44.098;3.072;2024-03-17T11:51:49;2.90;;;0.40;;
85877;SDS011;76393;44.098;3.072;2024-03-17T11:54:16;1.35;;;0.43;;
85877;SDS011;76393;44.098;3.072;2024-03-17T11:56:50;2.55;;;0.60;;
85877;SDS011;76393;44.098;3.072;2024-03-17T11:59:16;3.63;;;0.60;;
85877;SDS011;76393;44.098;3.072;2024-03-17T12:01:43;2.47;;;0.60;;
85877;SDS011;76393;44.098;3.072;2024-03-17T12:04:10;2.65;;;0.60;;
85877;SDS011;76393;44.098;3.072;2024-03-17T12:06:37;1.77;;;0.50;;
85877;SDS011;76393;44.098;3.072;2024-03-17T12:09:10;2.97;;;0.65;;
85877;SDS011;76393;44.098;3.072;2024-03-17T12:11:41;2.25;;;0.73;;
85877;SDS011;76393;44.098;3.072;2024-03-17T12:14:17;2.03;;;0.47;;
85877;SDS011;76393;44.098;3.072;2024-03-17T12:16:47;2.67;;;0.50;;
85877;SDS011;76393;44.098;3.072;2024-03-17T12:19:17;3.03;;;0.70;;
85877;SDS011;76393;44.098;3.072;2024-03-17T12:21:44;2.58;;;0.70;;
85877;SDS011;76393;44.098;3.072;2024-03-17T12:24:15;2.55;;;0.77;;
85877;SDS011;76393;44.098;3.072;2024-03-17T12:26:42;2.90;;;0.60;;
85877;SDS011;76393;44.098;3.072;2024-03-17T12:34:38;2.35;;;0.80;;
85877;SDS011;76393;44.098;3.072;2024-03-17T12:37:04;2.88;;;1.15;;
85877;SDS011;76393;44.098;3.072;2024-03-17T12:39:30;2.80;;;1.30;;
85877;SDS011;76393;44.098;3.072;2024-03-17T12:42:04;5.30;;;1.95;;
85877;SDS011;76393;44.098;3.072;2024-03-17T12:44:34;3.08;;;1.30;;
85877;SDS011;76393;44.098;3.072;2024-03-17T12:47:07;4.25;;;1.38;;
85877;SDS011;76393;44.098;3.072;2024-03-17T12:49:33;2.90;;;1.13;;
85877;SDS011;76393;44.098;3.072;2024-03-17T12:52:01;3.20;;;1.60;;
85877;SDS011;76393;44.098;3.072;2024-03-17T12:54:28;3.13;;;1.10;;
85877;SDS011;76393;44.098;3.072;2024-03-17T12:57:07;3.78;;;1.20;;
85877;SDS011;76393;44.098;3.072;2024-03-17T12:59:52;2.28;;;0.95;;
85877;SDS011;76393;44.098;3.072;2024-03-17T13:02:45;2.13;;;0.98;;
85877;SDS011;76393;44.098;3.072;2024-03-17T13:05:18;3.22;;;1.35;;
85877;SDS011;76393;44.098;3.072;2024-03-17T13:07:46;2.55;;;1.05;;
85877;SDS011;76393;44.098;3.072;2024-03-17T13:10:15;3.08;;;1.35;;
85877;SDS011;76393;44.098;3.072;2024-03-17T13:12:44;2.90;;;1.50;;
85877;SDS011;76393;44.098;3.072;2024-03-17T13:15:12;3.03;;;1.10;;
85877;SDS011;76393;44.098;3.072;2024-03-17T13:17:38;2.85;;;1.15;;
85877;SDS011;76393;44.098;3.072;2024-03-17T13:20:05;2.35;;;1.10;;
85877;SDS011;76393;44.098;3.072;2024-03-17T13:22:34;2.72;;;1.20;;
85877;SDS011;76393;44.098;3.072;2024-03-17T13:25:01;4.13;;;1.10;;
85877;SDS011;76393;44.098;3.072;2024-03-17T13:27:26;3.92;;;1.70;;
85877;SDS011;76393;44.098;3.072;2024-03-17T13:29:52;2.38;;;1.02;;
85877;SDS011;76393;44.098;3.072;2024-03-17T13:32:19;3.33;;;1.23;;
85877;SDS011;76393;44.098;3.072;2024-03-17T13:34:44;3.50;;;1.10;;
85877;SDS011;76393;44.098;3.072;2024-03-17T13:37:10;2.95;;;1.00;;
85877;SDS011;76393;44.098;3.072;2024-03-17T13:39:36;2.60;;;1.20;;
85877;SDS011;76393;44.098;3.072;2024-03-17T13:42:02;2.83;;;1.25;;
85877;SDS011;76393;44.098;3.072;2024-03-17T13:44:31;2.75;;;0.98;;
85877;SDS011;76393;44.098;3.072;2024-03-17T13:46:57;2.30;;;0.90;;
85877;SDS011;76393;44.098;3.072;2024-03-17T13:49:29;2.72;;;1.00;;
85877;SDS011;76393;44.098;3.072;2024-03-17T13:51:55;2.35;;;1.23;;
85877;SDS011;76393;44.098;3.072;2024-03-17T13:54:20;3.03;;;1.15;;
85877;SDS011;76393;44.098;3.072;2024-03-17T13:56:49;3.05;;;0.98;;
85877;SDS011;76393;44.098;3.072;2024-03-17T13:59:15;2.20;;;1.17;;
85877;SDS011;76393;44.098;3.072;2024-03-17T14:01:44;2.47;;;0.95;;
85877;SDS011;76393;44.098;3.072;2024-03-17T14:04:14;2.03;;;0.93;;
85877;SDS011;76393;44.098;3.072;2024-03-17T14:06:40;1.73;;;0.75;;
85877;SDS011;76393;44.098;3.072;2024-03-17T14:09:07;2.13;;;1.00;;
85877;SDS011;76393;44.098;3.072;2024-03-17T14:11:35;2.95;;;0.90;;
85877;SDS011;76393;44.098;3.072;2024-03-17T14:14:01;2.58;;;0.80;;
85877;SDS011;76393;44.098;3.072;2024-03-17T14:16:29;3.22;;;1.00;;
85877;SDS011;76393;44.098;3.072;2024-03-17T14:18:56;2.90;;;1.05;;
85877;SDS011;76393;44.098;3.072;2024-03-17T14:21:22;2.70;;;1.00;;
85877;SDS011;76393;44.098;3.072;2024-03-17T14:23:48;1.80;;;0.80;;
85877;SDS011;76393;44.098;3.072;2024-03-17T14:26:13;2.38;;;1.00;;
85877;SDS011;76393;44.098;3.072;2024-03-17T14:28:39;2.00;;;0.80;;
85877;SDS011;76393;44.098;3.072;2024-03-17T14:31:05;2.72;;;1.00;;
85877;SDS011;76393;44.098;3.072;2024-03-17T14:33:31;3.40;;;0.90;;
85877;SDS011;76393;44.098;3.072;2024-03-17T14:35:57;2.65;;;0.95;;
85877;SDS011;76393;44.098;3.072;2024-03-17T14:38:22;2.58;;;0.80;;
85877;SDS011;76393;44.098;3.072;2024-03-17T14:40:50;2.05;;;0.82;;
85877;SDS011;76393;44.098;3.072;2024-03-17T14:43:16;4.75;;;0.90;;
85877;SDS011;76393;44.098;3.072;2024-03-17T14:45:42;2.30;;;0.70;;
85877;SDS011;76393;44.098;3.072;2024-03-17T14:48:07;2.33;;;0.70;;
85877;SDS011;76393;44.098;3.072;2024-03-17T14:50:34;2.45;;;0.80;;
85877;SDS011;76393;44.098;3.072;2024-03-17T14:53:01;4.10;;;1.10;;
85877;SDS011;76393;44.098;3.072;2024-03-17T14:55:27;2.58;;;0.70;;
85877;SDS011;76393;44.098;3.072;2024-03-17T14:57:53;2.33;;;0.90;;
85877;SDS011;76393;44.098;3.072;2024-03-17T15:00:19;1.55;;;0.70;;
85877;SDS011;76393;44.098;3.072;2024-03-17T15:02:46;2.20;;;1.00;;
85877;SDS011;76393;44.098;3.072;2024-03-17T15:05:15;2.58;;;0.73;;
85877;SDS011;76393;44.098;3.072;2024-03-17T15:07:40;2.88;;;0.88;;
85877;SDS011;76393;44.098;3.072;2024-03-17T15:10:06;1.95;;;0.68;;
85877;SDS011;76393;44.098;3.072;2024-03-17T15:12:33;3.25;;;0.90;;
85877;SDS011;76393;44.098;3.072;2024-03-17T15:14:58;2.08;;;0.77;;
85877;SDS011;76393;44.098;3.072;2024-03-17T15:17:24;2.63;;;0.70;;
85877;SDS011;76393;44.098;3.072;2024-03-17T15:19:50;1.98;;;0.88;;
85877;SDS011;76393;44.098;3.072;2024-03-17T15:22:16;1.98;;;0.80;;
85877;SDS011;76393;44.098;3.072;2024-03-17T15:24:41;2.25;;;0.70;;